Time;durP1;ratioP1;P1;durP2;ratioP2;P2;SDS_P1;SDS_P2;PMS_P1;PMS_P2;Temp;Humidity;BMP_temperature;BMP_pressure;BME280_temperature;BME280_humidity;BME280_pressure;Samples;Min_cycle;Max_cycle;Signal;HPM_P1;HPM_P2
2023/04/10 19:06:25;;;;;;;14.03;2.80;;;11.20;99.90;;;;;;4263287;23;15179798;-73
2023/04/10 19:08:54;;;;;;;8.23;2.70;;;11.10;99.90;;;;;;4868827;29;20212;-74
2023/04/10 19:11:21;;;;;;;6.20;2.23;;;11.20;99.90;;;;;;4872667;29;20212;-81
2023/04/10 19:13:47;;;;;;;9.03;2.07;;;11.10;99.90;;;;;;4868641;29;20232;-75
2023/04/10 19:16:17;;;;;;;3.83;1.60;;;11.10;99.90;;;;;;4873787;29;20215;-74
2023/04/10 19:18:44;;;;;;;3.73;1.50;;;11.10;99.90;;;;;;4874047;29;20227;-79
2023/04/10 19:21:11;;;;;;;4.67;1.53;;;11.10;99.90;;;;;;4877337;29;20212;-74
2023/04/10 19:23:39;;;;;;;4.80;1.50;;;11.10;99.90;;;;;;4875055;29;20239;-74
2023/04/10 19:26:07;;;;;;;3.93;1.53;;;11.10;99.90;;;;;;4876196;29;20219;-74
2023/04/10 19:28:34;;;;;;;8.23;1.50;;;11.10;99.90;;;;;;4874290;29;20215;-80
2023/04/10 19:31:01;;;;;;;3.60;1.40;;;11.10;99.90;;;;;;4877495;29;20343;-73
2023/04/10 19:33:28;;;;;;;4.57;1.30;;;11.00;99.90;;;;;;4879381;29;20239;-73
2023/04/10 19:35:56;;;;;;;6.50;1.50;;;11.00;99.90;;;;;;4875835;29;20571;-73
2023/04/10 19:38:23;;;;;;;5.47;1.37;;;11.00;99.90;;;;;;4872879;29;20219;-73
2023/04/10 19:40:51;;;;;;;4.73;0.97;;;11.00;99.90;;;;;;4876136;29;20211;-73
2023/04/10 19:43:18;;;;;;;4.03;1.17;;;11.00;99.90;;;;;;4874772;29;20245;-73
2023/04/10 19:45:45;;;;;;;4.47;1.40;;;11.10;99.90;;;;;;4869714;29;20663;-74
2023/04/10 19:48:14;;;;;;;5.33;1.23;;;11.10;99.90;;;;;;4879272;29;20215;-74
2023/04/10 19:50:41;;;;;;;10.57;1.70;;;11.00;99.90;;;;;;4866248;29;20299;-74
2023/04/10 19:53:11;;;;;;;4.30;1.53;;;11.00;99.90;;;;;;4867859;29;20238;-73
2023/04/10 19:55:39;;;;;;;7.30;1.30;;;10.90;99.90;;;;;;4868734;29;20704;-73
2023/04/10 19:58:07;;;;;;;7.50;1.27;;;10.90;99.90;;;;;;4878207;29;20231;-74
2023/04/10 20:00:34;;;;;;;5.23;1.37;;;10.80;99.90;;;;;;4867518;29;20212;-73
2023/04/10 20:03:00;;;;;;;9.57;1.23;;;10.80;99.90;;;;;;4877016;29;20334;-81
2023/04/10 20:05:27;;;;;;;6.70;1.10;;;10.80;99.90;;;;;;4864898;29;20230;-74
2023/04/10 20:07:54;;;;;;;8.60;1.30;;;10.80;99.90;;;;;;4876304;29;20302;-74
2023/04/10 20:10:21;;;;;;;2.37;1.00;;;10.70;99.90;;;;;;4871401;29;20204;-73
2023/04/10 20:12:48;;;;;;;3.53;1.07;;;10.70;99.90;;;;;;4874524;29;20237;-74
2023/04/10 20:15:16;;;;;;;5.27;1.73;;;10.60;99.90;;;;;;4871640;29;20226;-73
2023/04/10 20:17:43;;;;;;;5.17;1.47;;;10.60;99.90;;;;;;4872757;29;20689;-73
2023/04/10 20:20:12;;;;;;;5.97;1.30;;;10.60;99.90;;;;;;4870085;29;20671;-73
2023/04/10 20:22:38;;;;;;;3.43;1.07;;;10.60;99.90;;;;;;4873196;29;20246;-73
2023/04/10 20:25:06;;;;;;;5.10;1.00;;;10.60;99.90;;;;;;4879225;29;20234;-73
2023/04/10 20:27:33;;;;;;;3.10;0.80;;;10.60;99.90;;;;;;4876626;29;20207;-73
2023/04/10 20:30:00;;;;;;;2.77;0.80;;;10.50;99.90;;;;;;4879750;29;20303;-73
2023/04/10 20:32:28;;;;;;;3.07;0.90;;;10.50;99.90;;;;;;4880672;29;20242;-73
2023/04/10 20:34:54;;;;;;;3.57;0.90;;;10.50;99.90;;;;;;4882232;29;20759;-73
2023/04/10 20:37:21;;;;;;;4.00;0.80;;;10.50;99.90;;;;;;4879616;29;20318;-74
2023/04/10 20:39:48;;;;;;;5.53;0.80;;;10.50;99.90;;;;;;4882411;29;20211;-74
2023/04/10 20:42:15;;;;;;;2.87;0.90;;;10.50;99.90;;;;;;4876956;29;20207;-73
2023/04/10 20:44:42;;;;;;;4.80;0.87;;;10.50;99.90;;;;;;4880299;29;20729;-73
2023/04/10 20:47:09;;;;;;;2.73;0.80;;;10.40;99.90;;;;;;4877029;29;20221;-72
2023/04/10 20:49:37;;;;;;;6.57;0.80;;;10.30;99.90;;;;;;4880370;29;20207;-73
2023/04/10 20:52:04;;;;;;;4.20;1.07;;;10.30;99.90;;;;;;4877998;29;20214;-72
